Time;durP1;ratioP1;P1;durP2;ratioP2;P2;SDS_P1;SDS_P2;PMS_P1;PMS_P2;Temp;Humidity;BMP_temperature;BMP_pressure;BME280_temperature;BME280_humidity;BME280_pressure;Samples;Min_cycle;Max_cycle;Signal;HPM_P1;HPM_P2
2022/04/17 00:09:47;;;;;;;5.00;3.07;;;7.70;99.90;;;;;;20892475;28;20025;-75
2022/04/17 00:19:48;;;;;;;4.97;3.17;;;7.50;99.90;;;;;;20915442;28;20118;-75
2022/04/17 00:29:49;;;;;;;6.25;3.35;;;7.40;99.90;;;;;;20914344;28;20129;-74
2022/04/17 00:39:51;;;;;;;5.33;2.90;;;7.30;99.90;;;;;;20914026;28;20060;-75
2022/04/17 00:49:51;;;;;;;5.60;3.72;;;7.10;99.90;;;;;;20912074;28;20095;-75
2022/04/17 00:59:53;;;;;;;5.20;3.27;;;7.10;99.90;;;;;;20912638;28;20418;-74
2022/04/17 01:09:56;;;;;;;5.65;3.83;;;6.90;99.90;;;;;;20912030;28;20141;-75
2022/04/17 01:19:57;;;;;;;9.23;4.00;;;6.80;99.90;;;;;;20911144;28;20032;-76
2022/04/17 01:29:58;;;;;;;9.13;4.57;;;6.60;99.90;;;;;;20909614;28;20033;-75
2022/04/17 01:39:59;;;;;;;5.33;3.43;;;6.40;99.90;;;;;;20914577;28;20548;-74
2022/04/17 01:50:00;;;;;;;5.60;3.73;;;6.30;99.90;;;;;;20906469;28;20025;-75
2022/04/17 02:00:01;;;;;;;6.93;4.67;;;6.10;99.90;;;;;;20908569;28;20033;-74
2022/04/17 02:10:05;;;;;;;8.10;4.40;;;6.10;99.90;;;;;;20906483;28;20060;-74
2022/04/17 02:20:08;;;;;;;10.73;4.75;;;5.80;99.90;;;;;;20907442;28;20442;-75
2022/04/17 02:30:09;;;;;;;11.70;4.53;;;5.70;99.90;;;;;;20906676;28;20056;-75
2022/04/17 02:40:10;;;;;;;7.93;4.60;;;5.60;99.90;;;;;;20906595;28;20506;-75
2022/04/17 02:50:11;;;;;;;;;;;5.50;99.90;;;;;;20905507;28;20029;-75
2022/04/17 03:00:12;;;;;;;8.88;5.72;;;5.40;99.90;;;;;;20870655;28;19939;-74
2022/04/17 03:10:13;;;;;;;11.20;5.97;;;5.30;99.90;;;;;;20876439;28;20021;-75
2022/04/17 03:20:14;;;;;;;10.90;5.50;;;5.10;99.90;;;;;;20876128;28;20278;-74
2022/04/17 03:30:17;;;;;;;11.37;5.53;;;5.10;99.90;;;;;;20874220;28;20025;-75
2022/04/17 03:40:17;;;;;;;11.10;5.47;;;5.10;99.90;;;;;;20876750;28;20068;-75
2022/04/17 03:50:21;;;;;;;9.57;5.17;;;5.10;99.90;;;;;;20869925;28;20025;-75
2022/04/17 04:00:22;;;;;;;8.80;5.30;;;5.20;99.90;;;;;;20874049;28;20108;-74
2022/04/17 04:10:23;;;;;;;6.97;4.60;;;5.20;99.90;;;;;;20872885;28;20102;-74
2022/04/17 04:20:23;;;;;;;6.27;4.30;;;5.10;99.90;;;;;;20900724;28;20268;-74
2022/04/17 04:30:24;;;;;;;6.13;4.27;;;4.90;99.90;;;;;;20950662;22;20044;-81
2022/04/17 04:40:25;;;;;;;7.05;4.13;;;5.00;99.90;;;;;;20904333;28;20040;-81
2022/04/17 04:50:26;;;;;;;8.40;4.43;;;5.00;99.90;;;;;;20819475;28;20041;-84
2022/04/17 05:00:27;;;;;;;6.93;3.83;;;4.90;99.90;;;;;;20814708;28;20029;-83
2022/04/17 05:10:28;;;;;;;8.80;4.03;;;5.00;99.90;;;;;;20830234;28;20030;-87
2022/04/17 05:20:33;;;;;;;6.20;3.47;;;5.10;99.90;;;;;;20831694;28;20547;-82
2022/04/17 05:30:34;;;;;;;5.85;4.00;;;5.30;99.90;;;;;;20832572;28;20307;-83
2022/04/17 05:40:37;;;;;;;5.03;3.57;;;5.50;99.90;;;;;;20812723;28;20029;-82
2022/04/17 05:50:40;;;;;;;7.35;3.70;;;5.80;99.90;;;;;;20827583;28;20373;-83
2022/04/17 06:00:42;;;;;;;4.35;3.13;;;6.30;99.90;;;;;;20828015;28;20029;-82
2022/04/17 06:10:43;;;;;;;4.68;3.10;;;6.60;99.90;;;;;;20828012;28;20072;-81
2022/04/17 06:20:44;;;;;;;6.20;3.40;;;6.90;99.90;;;;;;20830041;28;20045;-79
2022/04/17 06:30:45;;;;;;;4.17;2.67;;;7.30;99.90;;;;;;20841782;28;20033;-77
2022/04/17 06:40:46;;;;;;;4.60;2.37;;;7.90;99.90;;;;;;20840989;28;20041;-84
2022/04/17 06:50:49;;;;;;;5.37;3.00;;;8.70;99.90;;;;;;20824905;28;20037;-81
2022/04/17 07:00:50;;;;;;;3.25;2.45;;;8.70;99.90;;;;;;20839887;28;20037;-81
2022/04/17 07:10:51;;;;;;;6.83;2.83;;;9.30;99.90;;;;;;20841219;28;20095;-80
2022/04/17 07:20:52;;;;;;;5.97;2.93;;;9.60;99.90;;;;;;20835198;28;20124;-80
2022/04/17 07:30:53;;;;;;;4.93;2.57;;;10.20;99.90;;;;;;20902920;28;20408;-83
2022/04/17 07:40:54;;;;;;;4.00;2.03;;;10.40;99.80;;;;;;20850977;28;20231;-80
2022/04/17 07:50:54;;;;;;;3.60;2.40;;;11.40;98.40;;;;;;20900743;28;20593;-82
2022/04/17 08:00:59;;;;;;;3.93;2.17;;;11.70;97.40;;;;;;20920971;28;20022;-82
2022/04/17 08:11:00;;;;;;;3.28;2.22;;;11.90;98.30;;;;;;20889861;28;20452;-83
2022/04/17 08:21:01;;;;;;;2.97;2.10;;;12.30;98.20;;;;;;20872460;28;20408;-83
2022/04/17 08:31:02;;;;;;;2.83;1.83;;;12.70;97.70;;;;;;20890695;28;20037;-84
2022/04/17 08:41:05;;;;;;;3.10;2.17;;;13.20;96.60;;;;;;20822583;28;20040;-81
2022/04/17 08:51:05;;;;;;;3.75;2.45;;;13.30;97.90;;;;;;20859752;28;20554;-82
2022/04/17 09:01:06;;;;;;;5.00;2.13;;;13.90;95.80;;;;;;20871850;28;20598;-82
2022/04/17 09:11:08;;;;;;;3.73;1.90;;;14.40;95.30;;;;;;20862124;28;20063;-81
2022/04/17 09:21:09;;;;;;;3.50;1.92;;;14.50;94.80;;;;;;20882692;28;20271;-85
2022/04/17 09:31:11;;;;;;;4.13;2.10;;;15.20;95.10;;;;;;20902279;28;20029;-84
2022/04/17 09:41:15;;;;;;;3.17;1.80;;;15.70;92.00;;;;;;20885812;28;20025;-84
2022/04/17 09:51:27;;;;;;;4.20;2.10;;;15.50;94.20;;;;;;20871701;28;20033;-83
2022/04/17 10:01:30;;;;;;;4.75;2.17;;;15.70;92.50;;;;;;20820431;28;20057;-83
2022/04/17 10:11:32;;;;;;;3.23;1.50;;;16.30;93.40;;;;;;20839614;28;20056;-81
2022/04/17 10:21:42;;;;;;;3.90;1.70;;;16.20;91.70;;;;;;20927320;28;20050;-83
2022/04/17 10:32:17;;;;;;;14.32;8.18;;;17.50;86.70;;;;;;20889588;22;20049;-72
2022/04/17 10:42:18;;;;;;;3.13;1.75;;;18.00;89.70;;;;;;20937811;28;20773;-72
2022/04/17 10:52:27;;;;;;;3.77;1.77;;;16.20;89.50;;;;;;20872781;28;20055;-74
2022/04/17 11:02:29;;;;;;;3.38;2.53;;;18.10;84.80;;;;;;20940181;28;20518;-74
2022/04/17 11:12:30;;;;;;;8.77;1.90;;;18.60;80.50;;;;;;20953671;28;20399;-74
2022/04/17 11:22:35;;;;;;;3.33;1.77;;;19.50;75.70;;;;;;20953851;28;20039;-74
2022/04/17 11:32:46;;;;;;;3.63;1.30;;;19.50;78.20;;;;;;20955536;28;20103;-73
2022/04/17 11:42:49;;;;;;;2.20;1.50;;;19.40;77.60;;;;;;20973994;28;20024;-74
2022/04/17 11:52:51;;;;;;;1.48;1.38;;;19.90;76.90;;;;;;20937767;28;20178;-73
2022/04/17 12:03:00;;;;;;;2.95;1.50;;;20.50;73.40;;;;;;20915729;28;20036;-73
2022/04/17 12:13:13;;;;;;;1.75;0.98;;;20.30;71.70;;;;;;20916374;28;20041;-74
2022/04/17 12:23:14;;;;;;;2.35;1.15;;;20.00;76.30;;;;;;20914435;28;20067;-73
2022/04/17 12:33:23;;;;;;;2.30;1.20;;;20.40;72.00;;;;;;20917409;28;20513;-74
2022/04/17 12:43:29;;;;;;;1.88;1.08;;;20.50;73.40;;;;;;20951606;28;20017;-74
2022/04/17 12:53:35;;;;;;;1.50;0.90;;;20.70;68.80;;;;;;20944263;28;20036;-74
2022/04/17 13:03:36;;;;;;;3.40;1.10;;;20.70;68.40;;;;;;20912384;28;20395;-75
2022/04/17 13:13:38;;;;;;;2.23;1.07;;;20.50;68.60;;;;;;20911272;28;20036;-72
2022/04/17 13:23:39;;;;;;;4.55;1.00;;;20.70;69.30;;;;;;20910619;28;20379;-71
2022/04/17 13:33:41;;;;;;;1.60;0.95;;;20.80;71.90;;;;;;20880408;28;20500;-71
2022/04/17 13:43:41;;;;;;;;;;;19.70;68.10;;;;;;20827748;28;20049;-71
2022/04/17 13:53:42;;;;;;;1.30;0.80;;;20.50;67.90;;;;;;20870104;28;19916;-71
2022/04/17 14:03:43;;;;;;;1.80;1.40;;;20.50;64.70;;;;;;20908102;28;20649;-71
2022/04/17 14:13:44;;;;;;;3.70;0.83;;;20.40;65.80;;;;;;20907985;28;20095;-71
2022/04/17 14:23:45;;;;;;;1.03;0.80;;;18.70;68.40;;;;;;20907232;28;20028;-72
2022/04/17 14:33:46;;;;;;;1.50;1.00;;;20.30;60.70;;;;;;20875378;28;20427;-72
2022/04/17 14:43:46;;;;;;;0.87;0.70;;;19.90;64.10;;;;;;20828864;28;20112;-71
2022/04/17 14:53:49;;;;;;;1.33;0.90;;;19.60;61.60;;;;;;20884787;28;20052;-71
2022/04/17 15:03:49;;;;;;;1.58;0.85;;;19.00;64.00;;;;;;20925537;28;20112;-72
2022/04/17 15:13:55;;;;;;;1.00;0.80;;;19.40;65.40;;;;;;20902587;28;20120;-72
2022/04/17 15:23:56;;;;;;;2.20;1.10;;;19.10;63.60;;;;;;20886328;28;20109;-72
2022/04/17 15:34:02;;;;;;;1.67;1.00;;;19.00;65.30;;;;;;20872301;28;20029;-72
2022/04/17 15:54:23;;;;;;;1.42;0.90;;;18.00;63.60;;;;;;20939337;28;20538;-72
2022/04/17 16:04:24;;;;;;;1.97;1.27;;;17.90;64.80;;;;;;20932551;28;20033;-72
2022/04/17 16:14:25;;;;;;;1.67;1.00;;;17.00;66.00;;;;;;20933748;28;20036;-72
2022/04/17 16:24:26;;;;;;;1.23;1.00;;;16.50;67.60;;;;;;20937152;28;20029;-72
2022/04/17 16:34:27;;;;;;;2.53;1.77;;;16.20;69.70;;;;;;20911295;28;20090;-71
2022/04/17 16:44:28;;;;;;;2.83;1.30;;;15.90;69.10;;;;;;20933734;28;20028;-71
2022/04/17 16:54:29;;;;;;;4.70;2.13;;;15.60;69.40;;;;;;20928612;28;20028;-71
2022/04/17 17:04:29;;;;;;;3.97;1.80;;;15.10;71.30;;;;;;20852875;28;20029;-72
2022/04/17 17:14:30;;;;;;;2.17;1.43;;;15.00;71.20;;;;;;20809485;28;20500;-72
2022/04/17 17:24:31;;;;;;;1.57;1.00;;;14.70;73.30;;;;;;20827901;22;20026;-75
2022/04/17 17:34:32;;;;;;;1.30;1.00;;;14.40;74.90;;;;;;20948340;28;20506;-76
2022/04/17 17:44:34;;;;;;;2.33;1.60;;;14.10;76.50;;;;;;20972062;28;20115;-77
2022/04/17 17:54:35;;;;;;;2.00;1.13;;;13.60;78.30;;;;;;21016254;28;20115;-75
2022/04/17 18:04:37;;;;;;;2.87;1.60;;;13.30;81.20;;;;;;20950567;28;20132;-74
2022/04/17 18:14:41;;;;;;;2.33;1.30;;;13.00;82.10;;;;;;20922053;28;20143;-75
2022/04/17 18:24:45;;;;;;;1.77;1.25;;;12.80;83.20;;;;;;20915428;28;20063;-77
2022/04/17 18:34:46;;;;;;;4.07;2.50;;;12.50;84.60;;;;;;20953364;28;20064;-77
2022/04/17 18:44:46;;;;;;;6.03;2.63;;;12.20;86.70;;;;;;20973786;28;20102;-76
2022/04/17 18:54:47;;;;;;;8.73;2.17;;;12.10;86.60;;;;;;21041634;28;20035;-77
2022/04/17 19:04:48;;;;;;;3.80;2.30;;;11.90;87.60;;;;;;20966875;28;20036;-76
2022/04/17 19:14:49;;;;;;;7.37;2.17;;;11.60;89.20;;;;;;20954430;28;20449;-73
2022/04/17 19:24:50;;;;;;;5.07;2.77;;;11.40;90.10;;;;;;20953653;28;20044;-74
2022/04/17 19:45:15;;;;;;;3.13;1.73;;;10.70;91.30;;;;;;20935070;28;20078;-75
2022/04/17 19:55:16;;;;;;;3.55;1.77;;;10.60;91.60;;;;;;21028779;28;20064;-75
2022/04/17 20:05:16;;;;;;;3.27;2.30;;;10.50;91.80;;;;;;20980790;28;20127;-74
2022/04/17 20:15:17;;;;;;;3.00;1.93;;;10.40;92.10;;;;;;20930766;28;20814;-75
2022/04/17 20:25:19;;;;;;;4.17;2.13;;;10.20;92.30;;;;;;20909376;28;20040;-75
2022/04/17 20:35:20;;;;;;;5.15;2.53;;;10.10;92.70;;;;;;20935659;28;20594;-74
2022/04/17 20:55:40;;;;;;;4.35;2.33;;;9.70;94.30;;;;;;20948845;28;20498;-75
2022/04/17 21:05:42;;;;;;;7.20;3.10;;;9.50;94.80;;;;;;20931386;28;20041;-75
2022/04/17 21:15:42;;;;;;;8.60;2.90;;;9.40;95.50;;;;;;20898366;28;20105;-76
2022/04/17 21:25:44;;;;;;;4.93;2.40;;;9.20;96.00;;;;;;20913793;28;20065;-75
2022/04/17 21:35:45;;;;;;;5.37;2.47;;;8.90;96.40;;;;;;20947418;28;20070;-75
2022/04/17 21:45:46;;;;;;;2.97;2.03;;;8.80;97.10;;;;;;20995345;28;20028;-75
2022/04/17 21:55:47;;;;;;;6.90;2.87;;;8.50;97.90;;;;;;21023736;28;20443;-76
2022/04/17 22:05:48;;;;;;;7.37;2.73;;;8.50;97.70;;;;;;20977540;28;20095;-76
2022/04/17 22:15:48;;;;;;;5.60;3.00;;;8.50;97.70;;;;;;20995083;28;20111;-75
2022/04/17 22:25:50;;;;;;;6.87;2.70;;;8.40;98.30;;;;;;20951209;28;20375;-76
2022/04/17 22:35:51;;;;;;;8.15;3.15;;;8.10;99.70;;;;;;20931986;28;20049;-75
2022/04/17 22:45:52;;;;;;;8.23;2.80;;;8.00;99.10;;;;;;20926551;28;20036;-75
2022/04/17 22:55:54;;;;;;;5.13;3.03;;;7.80;99.90;;;;;;20918250;28;20434;-75
2022/04/17 23:05:55;;;;;;;8.93;3.97;;;7.80;99.90;;;;;;20962764;28;20032;-74
2022/04/17 23:15:55;;;;;;;5.10;3.10;;;7.60;99.90;;;;;;20968772;28;20075;-75
2022/04/17 23:25:56;;;;;;;4.47;2.13;;;7.60;99.90;;;;;;20947812;22;20037;-74
2022/04/17 23:35:57;;;;;;;4.63;2.27;;;7.40;99.60;;;;;;20922262;28;20106;-75
2022/04/17 23:45:58;;;;;;;7.77;2.40;;;7.10;99.90;;;;;;20814070;28;20136;-74
2022/04/17 23:55:59;;;;;;;5.83;2.27;;;7.00;99.90;;;;;;20849390;28;20504;-76
